Etusivu
METAR-TAF:

METAR-TAF

Lentoasemat :

Memphisin kansainvälinen lentoasema

Memphis, Tennessee, Yhdysvallat

Leveyspiiri: 35-03-40N, Pituuspiiri: 089-59-06W, korkeus merenpinnasta: 101 m

Tämänhetkinen sää

Tämä raportti tehtiin 47 minuuttia sitten, kello 01.54 UTC
Tuuli 6 kn kaakosta
Lämpötila 16°C
Kosteus 55%
Ilmanpaine 1012 hPa
Näkyvyys: 16.1 km
selkeää

METAR: KMEM 190154Z 14006KT 10SM CLR 16/07 A2987 RMK AO2 SLP112 T01560067

Aika: 21:41 (02:41 UTC)

Sääennuste

Tämä raportti tehtiin 3 tuntia ja 21 minuuttia sitten, kello 23.20 UTC
Ennuste voimassa 19. päivästä klo 00 UTC - 20. päivään klo 06 UTC
Tuuli 5 kn idästä/kaakosta
Näkyvyys: 10 km
Muutamia pilviä 25000 ft:n korkeudessa
From 19. päivästä klo 1500 UTC
Tuuli 4 kn etelästä
Näkyvyys: 10 km
Muutamia pilviä 10000 ft:n korkeudessa

TAF: KMEM 182320Z 1900/2006 11005KT P6SM FEW250 FM191500 17004KT P6SM FEW100

Säähavainnot ja -ennusteet yli 4000 lentoasemalta (METAR- ja TAF-raportit).

Käytössä olevat sääasemat on merkitty karttaan keltaisilla ja punaisilla pisteillä.

Aseta hiiri pisteen päälle nähdäksesi sääaseman nimen.

Klikkaa sitten nähdäksesi säähavainnot ja -ennusteet.

Kartan vaihtaminen: klikkaa mustalla rastilla varustettuja vihreitä pisteitä, niin voit zoomata sisään; viivalla varustettua vihreää pistettä, niin voit zoomata ulos tai vihreitä nuolia, niin pääset viereisille kartoille.


METAR-TAF: